Latest Coastal Weather Observations for Maningrida Airport

IDD60701

Issued at 2:51 pm CST Sunday 24 May 2015 (issued every 10 minutes, with the page automatically refreshed every 10 minutes)

About coastal observations | Map of coastal stations | Coastal observations for NT | Marine services | Other Formats
Station Details ID: 014405 Name: MANINGRIDA AIRPORT Lat: -12.06 Lon: 134.23 Height: 28.1 m
Data from the previous 72 hours. | See also: Recent months at Maningrida Airport
Date/Time
CST
Temp

°C
Wind Pressure Rain
since 9am
mm
Weather Cloud Vis
km
Sea
Height
m
Swell
Dir
 
Speed
knots
Gust
knots
hPa Trend Height
m
Period
s
Dir
24/02:30pm 30.9 E 8 11 1012.2 - 0.0 - - 10 - - - -
24/02:00pm 30.9 ESE 7 12 1012.3 - 0.0 - - 10 - - - -
24/01:30pm 30.0 SE 10 15 1012.7 - 0.0 - - 10 - - - -
24/01:00pm 30.3 SE 9 15 1013.2 - 0.0 - - 10 - - - -
24/12:30pm 29.2 SSE 9 15 1013.6 - 0.0 - - 10 - - - -
24/12:00pm 28.3 SE 10 15 1014.2 - 0.0 - - 10 - - - -
24/11:30am 28.2 SE 12 16 1014.6 - 0.0 - - 10 - - - -
24/11:00am 27.5 SSE 13 17 1015.0 - 0.0 - - 10 - - - -
24/10:30am 26.8 SE 13 17 1015.3 - 0.0 - - 10 - - - -
24/10:00am 25.2 SE 13 20 1015.3 - 0.0 - - 10 - - - -
24/09:30am 24.4 SE 11 15 1015.6 - 0.0 - - 10 - - - -
24/09:00am 23.8 SE 10 13 1015.6 - 0.0 - - 10 - - - -
24/08:30am 22.3 SE 10 14 1015.5 - 0.0 - - 10 - - - -
24/08:00am 20.8 SE 9 11 1015.4 - 0.0 - - 10 - - - -
24/07:30am 19.5 SE 8 10 1015.3 - 0.0 - - 10 - - - -
24/07:00am 18.5 SSE 7 10 1015.1 - 0.0 - - 10 - - - -
24/06:30am 18.0 SSE 6 7 1014.6 - 0.0 - - 10 - - - -
24/06:00am 18.0 S 5 6 1014.5 - 0.0 - - 8 - - - -
24/05:30am 18.0 S 5 7 1014.3 - 0.0 - - 6 - - - -
24/05:12am 17.9 S 5 6 1014.2 - 0.0 - - 6 - - - -
24/05:00am 18.2 S 5 6 1014.2 - 0.0 - - 5 - - - -
24/04:47am 18.2 S 5 6 1014.2 - 0.0 - - 5 - - - -
24/04:38am 18.1 S 5 6 1014.1 - 0.0 - - 6 - - - -
24/04:30am 18.5 SSE 4 5 1014.1 - 0.0 - - 6 - - - -
24/04:02am 18.8 SSE 4 5 1014.2 - 0.0 - - 5 - - - -
24/04:00am 18.9 SSE 4 6 1014.2 - 0.0 - - 6 - - - -
24/03:30am 19.0 S 5 6 1014.3 - 0.0 - - 9 - - - -
24/03:00am 19.4 SE 3 4 1014.4 - 0.0 - - 10 - - - -
24/02:30am 20.0 SE 4 5 1014.3 - 0.0 - - 10 - - - -
24/02:00am 20.9 SE 5 6 1014.5 - 0.0 - - 10 - - - -
24/01:30am 21.6 ESE 6 8 1014.7 - 0.0 - - 10 - - - -
24/01:00am 22.1 ESE 7 10 1014.9 - 0.0 - - 10 - - - -
24/12:30am 22.6 SE 9 12 1015.0 - 0.0 - - 10 - - - -
24/12:00am 23.0 SE 10 14 1015.2 - 0.0 - - 10 - - - -
 
Date/Time
CST
Temp

°C
Wind Pressure Rain
since 9am
mm
Weather Cloud Vis
km
Sea
Height
m
Swell
Dir
 
Speed
knots
Gust
knots
hPa Trend Height
m
Period
s
Dir
23/11:30pm 23.3 SE 11 16 1015.2 - 0.0 - - 10 - - - -
23/11:00pm 23.7 ESE 10 12 1015.0 - 0.0 - - 10 - - - -
23/10:30pm 24.1 ESE 9 12 1014.9 - 0.0 - - 10 - - - -
23/10:00pm 24.5 ESE 9 11 1014.7 - 0.0 - - 10 - - - -
23/09:30pm 25.0 ESE 9 12 1014.6 - 0.0 - - 10 - - - -
23/09:00pm 25.3 SE 8 12 1014.5 - 0.0 - - 10 - - - -
23/08:30pm 25.8 ESE 8 11 1014.2 - 0.0 - - 10 - - - -
23/08:00pm 26.1 ESE 8 10 1013.9 - 0.0 - - 10 - - - -
23/07:30pm 26.5 ESE 7 8 1013.6 - 0.0 - - 10 - - - -
23/07:00pm 27.0 ESE 6 8 1013.4 - 0.0 - - 10 - - - -
23/06:30pm 27.5 ESE 5 6 1013.1 - 0.0 - - 10 - - - -
23/06:00pm 28.5 ESE 6 7 1012.7 - 0.0 - - 10 - - - -
23/05:30pm 29.5 E 6 8 1012.3 - 0.0 - - 10 - - - -
23/05:00pm 30.4 ESE 8 12 1012.0 - 0.0 - - 10 - - - -
23/04:30pm 31.1 ESE 8 12 1011.9 - 0.0 - - 10 - - - -
23/04:00pm 31.4 SE 9 13 1011.7 - 0.0 - - 10 - - - -
23/03:30pm 31.1 ESE 8 12 1011.9 - 0.0 - - 10 - - - -
23/03:00pm 31.0 SE 9 14 1012.1 - 0.0 - - 10 - - - -
23/02:30pm 31.4 SE 9 14 1012.4 - 0.0 - - 10 - - - -
23/02:00pm 31.3 SE 11 16 1012.9 - 0.0 - - 10 - - - -
23/01:30pm 31.0 ESE 10 15 1013.5 - 0.0 - - 10 - - - -
23/01:00pm 30.9 SSE 11 17 1013.9 - 0.0 - - 10 - - - -
23/12:30pm 29.3 SSE 11 15 1014.2 - 0.0 - - 10 - - - -
23/12:00pm 28.9 SSE 11 17 1014.7 - 0.0 - - 10 - - - -
23/11:30am 28.3 SSE 13 17 1015.1 - 0.0 - - 10 - - - -
23/11:00am 28.3 SE 13 18 1015.6 - 0.0 - - 10 - - - -
23/10:30am 27.2 SSE 11 19 1016.0 - 0.0 - - 10 - - - -
23/10:00am 26.7 SE 14 20 1016.2 - 0.0 - - 10 - - - -
23/09:37am 26.0 SSE 15 25 1016.2 - 0.0 - - 10 - - - -
23/09:30am 26.2 SSE 14 23 1016.2 - 0.0 - - 10 - - - -
23/09:00am 25.1 SE 14 19 1016.0 - 0.0 - - 10 - - - -
23/08:30am 24.0 SSE 12 19 1015.8 - 0.0 - - 10 - - - -
23/08:00am 22.9 SSE 11 16 1015.6 - 0.0 - - 10 - - - -
23/07:30am 22.2 SSE 9 14 1015.4 - 0.0 - - 10 - - - -
23/07:00am 21.3 SSE 9 13 1015.2 - 0.0 - - 10 - - - -
23/06:30am 21.2 SSE 10 13 1015.0 - 0.0 - - 10 - - - -
23/06:00am 21.0 SSE 9 13 1014.9 - 0.0 - - 10 - - - -
23/05:30am 20.6 SSE 8 12 1014.8 - 0.0 - - 10 - - - -
23/05:00am 20.7 SSE 9 13 1014.4 - 0.0 - - 10 - - - -
23/04:30am 20.6 SSE 7 10 1014.4 - 0.0 - - 10 - - - -
23/04:00am 20.3 S 5 7 1014.4 - 0.0 - - 10 - - - -
23/03:30am 20.0 SSE 4 6 1014.4 - 0.0 - - 10 - - - -
23/03:00am 20.2 S 3 4 1014.5 - 0.0 - - 10 - - - -
23/02:30am 21.1 S 4 6 1014.6 - 0.0 - - 10 - - - -
23/02:00am 21.5 S 4 6 1014.8 - 0.0 - - 10 - - - -
23/01:30am 22.5 SE 5 7 1014.9 - 0.0 - - 10 - - - -
23/01:00am 22.8 SE 7 9 1015.0 - 0.0 - - 10 - - - -
23/12:30am 23.1 SE 7 8 1015.5 - 0.0 - - 10 - - - -
23/12:00am 23.8 ESE 7 9 1015.8 - 0.0 - - 10 - - - -
 
Date/Time
CST
Temp

°C
Wind Pressure Rain
since 9am
mm
Weather Cloud Vis
km
Sea
Height
m
Swell
Dir
 
Speed
knots
Gust
knots
hPa Trend Height
m
Period
s
Dir
22/11:30pm 23.8 SE 7 9 1016.2 - 0.0 - - 10 - - - -
22/11:00pm 24.7 SE 8 10 1016.4 - 0.0 - - 10 - - - -
22/10:30pm 25.2 ESE 9 12 1016.4 - 0.0 - - 10 - - - -
22/10:00pm 25.7 ESE 8 13 1016.3 - 0.0 - - 10 - - - -
22/09:30pm 26.2 ESE 9 13 1016.1 - 0.0 - - 10 - - - -
22/09:00pm 26.8 SE 11 16 1015.5 - 0.0 - - 10 - - - -
22/08:30pm 27.0 SE 11 17 1015.4 - 0.0 - - 10 - - - -
22/08:00pm 27.2 ESE 9 12 1014.9 - 0.0 - - 10 - - - -
22/07:30pm 27.5 ESE 7 9 1014.2 - 0.0 - - 10 - - - -
22/07:00pm 28.2 ESE 7 8 1014.0 - 0.0 - - 10 - - - -
22/06:30pm 28.8 ESE 6 8 1013.6 - 0.0 - - 10 - - - -
22/06:00pm 29.5 ESE 7 9 1013.3 - 0.0 - - 10 - - - -
22/05:30pm 30.8 ESE 7 10 1012.8 - 0.0 - Partly cloudy 10 - - - -
22/05:00pm 30.5 SE 10 14 1012.6 - 0.0 - Partly cloudy 10 - - - -
22/04:30pm 32.1 ESE 6 11 1012.1 - 0.0 - Partly cloudy 10 - - - -
22/04:00pm 31.5 ESE 10 15 1011.9 - 0.0 - Partly cloudy 10 - - - -
22/03:30pm 31.8 SSE 12 16 1012.0 - 0.0 - Partly cloudy 10 - - - -
22/03:00pm 32.0 ESE 11 16 1012.2 - 0.0 - Partly cloudy 10 - - - -
22/02:30pm 31.7 ESE 10 16 1012.4 - 0.0 - Partly cloudy 10 - - - -
22/02:00pm 31.9 E 10 16 1012.8 - 0.0 - Partly cloudy 10 - - - -
22/01:30pm 31.7 SE 12 16 1013.1 - 0.0 - Partly cloudy 10 - - - -
22/01:00pm 31.1 ESE 13 19 1013.7 - 0.0 - - 10 - - - -
22/12:30pm 30.5 ESE 11 15 1014.3 - 0.0 - - 10 - - - -
22/12:00pm 31.0 ESE 11 19 1014.9 - 0.0 - Mostly clear 10 - - - -
22/11:30am 30.4 SE 12 19 1015.3 - 0.0 - Partly cloudy 10 - - - -
22/11:00am 29.6 SE 12 18 1015.7 - 0.0 - - 10 - - - -
22/10:30am 29.1 SSE 12 17 1015.9 - 0.0 - - 10 - - - -
22/10:00am 28.0 SE 12 16 1016.1 - 0.0 - - 10 - - - -
22/09:30am 26.6 SE 11 14 1016.3 - 0.0 - Partly cloudy 10 - - - -
22/09:29am 26.6 SE 11 14 1016.4 - 0.0 - Partly cloudy 10 - - - -
22/09:00am 25.4 SE 10 12 1016.4 - 0.0 - Mostly cloudy 10 - - - -
22/08:30am 24.5 SE 10 13 1016.3 - 0.0 - Cloudy 10 - - - -
22/08:14am 24.4 SE 9 13 1016.1 - 0.0 - Partly cloudy 10 - - - -
22/08:00am 24.2 SSE 7 11 1015.9 - 0.0 - - 10 - - - -
22/07:30am 23.1 SSE 5 8 1015.8 - 0.0 - - 10 - - - -
22/07:00am 22.2 SSE 5 6 1015.3 - 0.0 - - 10 - - - -
22/06:30am 22.2 SSE 5 7 1015.1 - 0.0 - - 10 - - - -
22/06:00am 22.1 SSE 5 6 1014.8 - 0.0 - - 10 - - - -
22/05:30am 22.0 SSE 4 5 1014.8 - 0.0 - - 10 - - - -
22/05:00am 21.8 SSE 3 4 1014.7 - 0.0 - - 10 - - - -
22/04:30am 22.4 S 4 5 1014.6 - 0.0 - - 10 - - - -
22/04:00am 22.2 S 3 4 1014.6 - 0.0 - - 10 - - - -
22/03:30am 22.6 S 4 6 1014.5 - 0.0 - - 10 - - - -
22/03:00am 22.8 S 4 5 1014.6 - 0.0 - - 10 - - - -
22/02:30am 22.6 SE 3 4 1014.7 - 0.0 - - 10 - - - -
22/02:00am 23.4 SSE 4 5 1014.9 - 0.0 - - 10 - - - -
22/01:30am 23.9 SE 4 5 1015.2 - 0.0 - - 10 - - - -
22/01:00am 24.0 SE 5 5 1015.3 - 0.0 - - 10 - - - -
22/12:30am 23.8 ESE 4 5 1015.3 - 0.0 - - 10 - - - -
22/12:00am 24.1 ESE 4 4 1015.3 - 0.0 - - 10 - - - -
 
Date/Time
CST
Temp

°C
Wind Pressure Rain
since 9am
mm
Weather Cloud Vis
km
Sea
Height
m
Swell
Dir
 
Speed
knots
Gust
knots
hPa Trend Height
m
Period
s
Dir
21/11:30pm 24.1 SE 3 4 1015.4 - 0.0 - - 10 - - - -
21/11:00pm 24.6 ESE 3 5 1015.4 - 0.0 - - 10 - - - -
21/10:30pm 24.7 ESE 4 5 1015.6 - 0.0 - - 10 - - - -
21/10:00pm 25.1 ESE 4 5 1015.5 - 0.0 - - 10 - - - -
21/09:30pm 25.3 ESE 4 5 1015.2 - 0.0 - - 10 - - - -
21/09:00pm 25.4 E 3 4 1015.0 - 0.0 - - 10 - - - -
21/08:30pm 25.7 E 3 5 1014.7 - 0.0 - - 10 - - - -
21/08:00pm 25.9 ENE 3 4 1014.2 - 0.0 - - 10 - - - -
21/07:30pm 26.2 NE 4 5 1013.9 - 0.0 - - 10 - - - -
21/07:00pm 26.5 NE 4 6 1013.6 - 0.0 - - 10 - - - -
21/06:30pm 26.8 NE 5 6 1013.4 - 0.0 - - 10 - - - -
21/06:00pm 27.5 NE 5 7 1013.2 - 0.0 - - 10 - - - -
21/05:30pm 28.1 NNE 7 10 1013.0 - 0.0 - - 10 - - - -
21/05:00pm 28.7 NNE 8 10 1013.0 - 0.0 - - 10 - - - -
21/04:30pm 29.0 NE 8 10 1012.8 - 0.0 - Partly cloudy 10 - - - -
21/04:00pm 29.4 NE 9 14 1012.7 - 0.0 - - 10 - - - -
21/03:30pm 29.8 NE 10 14 1012.8 - 0.0 - - 10 - - - -
21/03:00pm 30.0 NNE 9 14 1013.0 - 0.0 - - 10 - - - -

Other Formats:

Comma delimited format used in spreadsheet applications
http://www.bom.gov.au/fwo/IDD60701/IDD60701.95142.axf

JavaScript Object Notation format (JSON) in row-major order
http://www.bom.gov.au/fwo/IDD60701/IDD60701.95142.json